createdAt,value
2022-09-09T00:00:50.196Z,100530.91
2022-09-09T00:03:22.646Z,100527.75
2022-09-09T00:06:12.255Z,100537.66
2022-09-09T00:08:50.625Z,100534.94
2022-09-09T00:11:31.302Z,100532.16
2022-09-09T00:14:04.451Z,100530.94
2022-09-09T00:16:35.600Z,100529.38
2022-09-09T00:19:09.195Z,100524.63
2022-09-09T00:21:39.821Z,100531.28
2022-09-09T00:24:28.948Z,100522.53
2022-09-09T00:27:02.155Z,100531.94
2022-09-09T00:29:36.975Z,100528.38
2022-09-09T00:32:17.237Z,100534.25
2022-09-09T00:34:57.082Z,100527.53
2022-09-09T00:37:29.164Z,100532.84
2022-09-09T00:40:01.196Z,100534.06
2022-09-09T00:42:38.209Z,100532.47
2022-09-09T00:45:26.300Z,100534.88
2022-09-09T00:47:56.502Z,100535.72
2022-09-09T00:50:31.148Z,100538.06
2022-09-09T00:52:58.782Z,100521.81
2022-09-09T00:55:44.589Z,100521.00
2022-09-09T00:58:12.367Z,100529.69
2022-09-09T01:00:45.781Z,100530.13
2022-09-09T01:03:26.542Z,100528.97
2022-09-09T01:06:24.810Z,100531.72
2022-09-09T01:09:16.913Z,100524.19
2022-09-09T01:11:47.362Z,100519.84
2022-09-09T01:14:33.428Z,100530.53
2022-09-09T01:17:08.562Z,100513.88
2022-09-09T01:19:45.799Z,100511.88
2022-09-09T01:22:37.416Z,100513.06
2022-09-09T01:25:13.874Z,100505.13
2022-09-09T01:28:00.934Z,100518.22
2022-09-09T01:30:29.206Z,100510.72
2022-09-09T01:33:01.340Z,100515.47
2022-09-09T01:35:52.651Z,100512.69
2022-09-09T01:38:22.302Z,100500.81
2022-09-09T01:40:53.353Z,100500.06
2022-09-09T01:43:25.881Z,100497.72
2022-09-09T01:45:56.911Z,100496.56
2022-09-09T01:48:25.843Z,100489.47
2022-09-09T01:51:04.208Z,100495.38
2022-09-09T01:53:31.932Z,100493.28
2022-09-09T01:56:43.305Z,100488.19
2022-09-09T01:59:26.793Z,100488.25
2022-09-09T02:02:24.202Z,100490.69
2022-09-09T02:05:15.628Z,100467.78
2022-09-09T02:07:49.306Z,100485.97
2022-09-09T02:10:54.760Z,100486.31
2022-09-09T02:13:37.454Z,100483.06
2022-09-09T02:16:52.261Z,100482.78
2022-09-09T02:19:27.422Z,100484.69
2022-09-09T02:22:10.184Z,100492.31
2022-09-09T02:24:41.017Z,100482.78
2022-09-09T02:27:20.296Z,100475.66
2022-09-09T02:29:48.473Z,100486.31
2022-09-09T02:32:26.388Z,100473.28
2022-09-09T02:35:19.138Z,100474.50
2022-09-09T02:37:51.022Z,100480.44
2022-09-09T02:40:18.818Z,100483.56
2022-09-09T02:42:50.958Z,100490.72
2022-09-09T02:45:26.107Z,100494.28
2022-09-09T02:48:00.008Z,100496.69
2022-09-09T02:50:43.274Z,100499.06
2022-09-09T02:53:17.059Z,100505.78
2022-09-09T02:55:55.726Z,100499.00
2022-09-09T02:58:25.184Z,100503.78
2022-09-09T03:00:59.006Z,100498.25
2022-09-09T03:03:28.143Z,100490.38
2022-09-09T03:05:57.913Z,100488.00
2022-09-09T03:08:28.251Z,100484.91
2022-09-09T03:10:59.223Z,100485.69
2022-09-09T03:13:31.066Z,100486.13
2022-09-09T03:15:58.335Z,100481.38
2022-09-09T03:18:26.143Z,100480.19
2022-09-09T03:20:55.352Z,100469.09
2022-09-09T03:23:24.108Z,100466.38
2022-09-09T03:25:53.013Z,100464.38
2022-09-09T03:28:32.294Z,100475.00
2022-09-09T03:31:02.847Z,100467.09
2022-09-09T03:33:35.259Z,100460.75
2022-09-09T03:36:02.768Z,100465.47
2022-09-09T03:38:30.515Z,100448.00
2022-09-09T03:41:01.382Z,100449.09
2022-09-09T03:43:30.210Z,100448.53
2022-09-09T03:45:58.110Z,100451.22
2022-09-09T03:48:29.298Z,100453.13
2022-09-09T03:50:58.983Z,100450.81
2022-09-09T03:53:26.746Z,100445.34
2022-09-09T03:55:56.586Z,100451.44
2022-09-09T03:58:27.837Z,100453.13
2022-09-09T04:01:02.886Z,100450.81
2022-09-09T04:03:31.359Z,100443.41
2022-09-09T04:06:01.041Z,100450.63
2022-09-09T04:08:34.238Z,100447.06
2022-09-09T04:11:06.017Z,100433.28
2022-09-09T04:13:42.664Z,100445.63
2022-09-09T04:16:16.667Z,100435.75
2022-09-09T04:18:44.875Z,100440.56
2022-09-09T04:21:13.527Z,100426.38
2022-09-09T04:23:41.903Z,100441.41
2022-09-09T04:26:10.200Z,100441.00
2022-09-09T04:28:38.985Z,100438.69
2022-09-09T04:31:19.704Z,100444.19
2022-09-09T04:33:48.467Z,100444.59
2022-09-09T04:36:19.497Z,100438.53
2022-09-09T04:38:49.850Z,100444.00
2022-09-09T04:41:17.633Z,100441.22
2022-09-09T04:43:49.588Z,100432.81
2022-09-09T04:46:18.493Z,100439.19
2022-09-09T04:48:46.374Z,100430.84
2022-09-09T04:51:15.289Z,100431.56
2022-09-09T04:53:44.592Z,100425.28
2022-09-09T04:56:16.412Z,100426.78
2022-09-09T04:58:53.284Z,100431.97
2022-09-09T05:01:25.573Z,100426.50
2022-09-09T05:03:56.287Z,100429.56
2022-09-09T05:06:24.404Z,100439.78
2022-09-09T05:08:56.344Z,100443.69
2022-09-09T05:11:29.167Z,100447.28
2022-09-09T05:14:08.630Z,100451.22
2022-09-09T05:16:36.634Z,100452.00
2022-09-09T05:19:04.328Z,100449.94
2022-09-09T05:21:43.108Z,100451.56
2022-09-09T05:24:13.221Z,100453.13
2022-09-09T05:26:41.078Z,100455.13
2022-09-09T05:29:09.758Z,100459.81
2022-09-09T05:31:37.834Z,100464.13
2022-09-09T05:34:10.170Z,100447.91
2022-09-09T05:36:37.865Z,100466.38
2022-09-09T05:39:05.377Z,100465.47
2022-09-09T05:41:36.676Z,100465.44
2022-09-09T05:44:04.702Z,100474.06
2022-09-09T05:46:36.407Z,100472.06
2022-09-09T05:49:06.553Z,100481.59
2022-09-09T05:51:35.507Z,100490.75
2022-09-09T05:54:10.379Z,100484.41
2022-09-09T05:56:42.585Z,100487.47
2022-09-09T05:59:10.784Z,100493.16
2022-09-09T06:01:44.594Z,100498.91
2022-09-09T06:04:25.907Z,100494.06
2022-09-09T06:06:54.051Z,100503.31
2022-09-09T06:09:23.899Z,100485.84
2022-09-09T06:11:51.247Z,100477.31
2022-09-09T06:14:20.339Z,100481.72
2022-09-09T06:16:49.507Z,100481.44
2022-09-09T06:19:25.416Z,100494.66
2022-09-09T06:21:52.826Z,100487.53
2022-09-09T06:24:21.050Z,100496.75
2022-09-09T06:26:48.575Z,100483.34
2022-09-09T06:29:29.151Z,100481.09
2022-09-09T06:31:57.387Z,100476.75
2022-09-09T06:34:27.118Z,100487.94
2022-09-09T06:36:58.671Z,100485.94
2022-09-09T06:39:27.330Z,100482.56
2022-09-09T06:41:55.603Z,100480.47
2022-09-09T06:44:42.004Z,100478.13
2022-09-09T06:47:13.723Z,100467.84
2022-09-09T06:49:48.178Z,100477.28
2022-09-09T06:52:15.977Z,100472.63
2022-09-09T06:54:43.720Z,100472.78
2022-09-09T06:59:58.414Z,100475.63
2022-09-09T07:02:26.126Z,100475.06
2022-09-09T07:04:54.412Z,100470.59
2022-09-09T07:07:21.744Z,100479.06
2022-09-09T07:09:50.213Z,100469.00
2022-09-09T07:12:17.662Z,100473.97
2022-09-09T07:14:53.771Z,100471.91
2022-09-09T07:17:21.074Z,100467.53
2022-09-09T07:19:49.212Z,100467.84
2022-09-09T07:22:17.732Z,100463.97
2022-09-09T07:24:46.794Z,100461.06
2022-09-09T07:27:15.841Z,100454.00
2022-09-09T07:29:43.895Z,100454.31
2022-09-09T07:32:12.033Z,100455.66
2022-09-09T07:34:39.537Z,100450.56
2022-09-09T07:37:07.489Z,100448.56
2022-09-09T07:39:35.941Z,100459.97
2022-09-09T07:42:03.462Z,100455.41
2022-09-09T07:44:30.989Z,100456.63
2022-09-09T07:47:11.896Z,100450.13
2022-09-09T07:49:50.644Z,100442.63
2022-09-09T07:52:22.560Z,100449.94
2022-09-09T07:54:54.901Z,100447.56
2022-09-09T07:57:22.579Z,100449.47
2022-09-09T07:59:51.601Z,100442.13
2022-09-09T08:02:19.112Z,100452.13
2022-09-09T08:04:47.335Z,100457.22
2022-09-09T08:07:18.764Z,100451.19
2022-09-09T08:09:51.510Z,100450.06
2022-09-09T08:12:24.300Z,100469.19
2022-09-09T08:14:55.429Z,100465.25
2022-09-09T08:17:23.644Z,100471.97
2022-09-09T08:19:51.484Z,100467.25
2022-09-09T08:22:23.307Z,100467.31
2022-09-09T08:24:51.406Z,100470.03
2022-09-09T08:27:19.974Z,100466.03
2022-09-09T08:29:47.477Z,100478.88
2022-09-09T08:32:15.400Z,100480.28
2022-09-09T08:34:46.587Z,100476.09
2022-09-09T08:37:18.046Z,100472.47
2022-09-09T08:39:45.502Z,100474.56
2022-09-09T08:42:32.843Z,100472.28
2022-09-09T08:45:15.923Z,100477.84
2022-09-09T08:47:54.488Z,100458.22
2022-09-09T08:50:28.995Z,100464.03
2022-09-09T08:53:18.497Z,100457.44
2022-09-09T08:55:56.192Z,100465.78
2022-09-09T08:58:37.711Z,100448.13
2022-09-09T09:01:11.531Z,100467.84
2022-09-09T09:04:12.943Z,100462.75
2022-09-09T09:07:05.891Z,100464.81
2022-09-09T09:09:47.515Z,100458.94
2022-09-09T09:12:24.653Z,100461.03
2022-09-09T09:14:53.127Z,100468.09
2022-09-09T09:17:24.496Z,100460.00
2022-09-09T09:19:52.596Z,100465.72
2022-09-09T09:22:49.848Z,100460.44
2022-09-09T09:25:32.477Z,100466.28
2022-09-09T09:28:11.857Z,100462.34
2022-09-09T09:30:47.323Z,100459.31
2022-09-09T09:33:28.071Z,100465.22
2022-09-09T09:35:55.930Z,100450.22
2022-09-09T09:41:13.899Z,100442.13
2022-09-09T09:43:43.627Z,100449.50
2022-09-09T09:46:24.832Z,100459.16
2022-09-09T09:49:06.788Z,100447.41
2022-09-09T09:51:35.529Z,100444.19
2022-09-09T09:54:16.092Z,100452.09
2022-09-09T09:56:48.749Z,100463.28
2022-09-09T09:59:39.146Z,100488.16
2022-09-09T10:02:18.054Z,100528.06
2022-09-09T10:04:48.429Z,100536.34
2022-09-09T10:07:21.564Z,100536.91
2022-09-09T10:09:58.078Z,100547.66
2022-09-09T10:12:50.842Z,100534.69
2022-09-09T10:15:27.186Z,100575.88
2022-09-09T10:18:29.508Z,100610.66
2022-09-09T10:21:14.242Z,100623.72
2022-09-09T10:24:24.187Z,100615.03
2022-09-09T10:27:13.720Z,100607.06
2022-09-09T10:29:47.006Z,100593.16
2022-09-09T10:32:38.331Z,100582.78
2022-09-09T10:35:16.553Z,100582.38
2022-09-09T10:38:03.202Z,100584.34
2022-09-09T10:40:39.138Z,100582.78
2022-09-09T10:43:09.457Z,100585.88
2022-09-09T10:45:49.543Z,100581.66
2022-09-09T10:48:30.031Z,100584.34
2022-09-09T10:51:20.351Z,100577.25
2022-09-09T10:54:00.705Z,100570.53
2022-09-09T10:56:30.249Z,100557.53
2022-09-09T10:59:13.346Z,100549.88
2022-09-09T11:01:58.406Z,100545.53
2022-09-09T11:04:58.139Z,100532.09
2022-09-09T11:07:40.502Z,100529.69
2022-09-09T11:10:34.147Z,100530.84
2022-09-09T11:13:07.030Z,100537.97
2022-09-09T11:15:44.439Z,100519.81
2022-09-09T11:18:22.643Z,100525.00
2022-09-09T11:20:56.826Z,100521.44
2022-09-09T11:23:33.369Z,100512.72
2022-09-09T11:26:08.454Z,100511.25
2022-09-09T11:28:52.219Z,100511.88
2022-09-09T11:31:38.222Z,100502.66
2022-09-09T11:34:27.177Z,100500.72
2022-09-09T11:37:49.293Z,100501.78
2022-09-09T11:40:20.194Z,100494.81
2022-09-09T11:42:50.848Z,100489.66
2022-09-09T11:45:32.238Z,100485.03
2022-09-09T11:48:01.733Z,100479.44
2022-09-09T11:50:39.013Z,100490.78
2022-09-09T11:53:23.733Z,100477.94
2022-09-09T11:56:14.647Z,100476.22
2022-09-09T11:58:46.775Z,100480.50
2022-09-09T12:01:34.456Z,100480.69
2022-09-09T12:04:13.351Z,100475.59
2022-09-09T12:06:54.140Z,100474.91
2022-09-09T12:09:28.675Z,100465.16
2022-09-09T12:12:14.494Z,100473.59
2022-09-09T12:14:42.129Z,100468.44
2022-09-09T12:17:31.666Z,100461.59
2022-09-09T12:20:32.408Z,100454.88
2022-09-09T12:23:06.287Z,100454.00
2022-09-09T12:25:51.781Z,100449.94
2022-09-09T12:28:23.525Z,100446.09
2022-09-09T12:31:19.140Z,100439.72
2022-09-09T12:33:48.481Z,100447.94
2022-09-09T12:36:20.806Z,100443.69
2022-09-09T12:38:49.161Z,100441.56
2022-09-09T12:41:23.978Z,100442.47
2022-09-09T12:43:52.353Z,100439.34
2022-09-09T12:46:37.668Z,100437.88
2022-09-09T12:49:05.570Z,100440.69
2022-09-09T12:51:34.319Z,100429.25
2022-09-09T12:54:01.862Z,100434.31
2022-09-09T12:56:32.257Z,100431.34
2022-09-09T12:59:01.935Z,100424.50
2022-09-09T13:01:31.998Z,100429.66
2022-09-09T13:04:00.367Z,100432.44
2022-09-09T13:06:30.062Z,100422.66
2022-09-09T13:09:00.332Z,100422.97
2022-09-09T13:11:34.039Z,100424.47
2022-09-09T13:14:02.199Z,100422.66
2022-09-09T13:16:33.388Z,100413.34
2022-09-09T13:19:16.876Z,100422.09
2022-09-09T13:21:44.191Z,100415.75
2022-09-09T13:24:33.491Z,100411.59
2022-09-09T13:27:26.719Z,100410.34
2022-09-09T13:29:56.877Z,100412.53
2022-09-09T13:32:27.860Z,100406.28
2022-09-09T13:35:01.135Z,100411.78
2022-09-09T13:37:37.788Z,100412.84
2022-09-09T13:40:19.470Z,100411.13
2022-09-09T13:42:46.904Z,100405.41
2022-09-09T13:45:23.439Z,100409.88
2022-09-09T13:47:56.327Z,100402.50
2022-09-09T13:50:26.227Z,100406.50
2022-09-09T13:52:55.707Z,100396.69
2022-09-09T13:55:24.770Z,100395.81
2022-09-09T13:57:57.032Z,100393.78
2022-09-09T14:00:25.393Z,100388.69
2022-09-09T14:02:52.943Z,100389.00
2022-09-09T14:05:20.691Z,100388.34
2022-09-09T14:07:51.315Z,100391.63
2022-09-09T14:10:20.846Z,100392.88
2022-09-09T14:12:48.133Z,100386.16
2022-09-09T14:15:15.638Z,100384.66
2022-09-09T14:17:43.393Z,100378.84
2022-09-09T14:20:12.857Z,100386.31
2022-09-09T14:22:42.646Z,100389.44
2022-09-09T14:25:10.002Z,100389.72
2022-09-09T14:27:37.350Z,100379.06
2022-09-09T14:30:05.680Z,100384.28
2022-09-09T14:32:33.984Z,100401.03
2022-09-09T14:35:01.271Z,100393.91
2022-09-09T14:37:31.494Z,100398.94
2022-09-09T14:39:59.083Z,100397.88
2022-09-09T14:42:27.718Z,100393.88
2022-09-09T14:44:55.022Z,100392.94
2022-09-09T14:47:23.055Z,100393.81
2022-09-09T14:49:50.855Z,100404.22
2022-09-09T14:52:18.408Z,100388.41
2022-09-09T14:54:45.678Z,100398.41
2022-09-09T14:57:12.910Z,100393.25
2022-09-09T14:59:41.570Z,100395.81
2022-09-09T15:02:10.123Z,100400.97
2022-09-09T15:04:37.511Z,100397.31
2022-09-09T15:07:04.884Z,100389.84
2022-09-09T15:09:33.147Z,100396.88
2022-09-09T15:12:01.773Z,100394.75
2022-09-09T15:14:29.081Z,100398.63
2022-09-09T15:16:56.401Z,100395.75
2022-09-09T15:19:23.670Z,100391.63
2022-09-09T15:21:50.964Z,100382.69
2022-09-09T15:24:18.244Z,100386.16
2022-09-09T15:26:46.522Z,100385.25
2022-09-09T15:29:13.833Z,100390.56
2022-09-09T15:31:41.311Z,100391.66
2022-09-09T15:34:08.837Z,100394.50
2022-09-09T15:36:38.833Z,100395.84
2022-09-09T15:39:09.308Z,100388.13
2022-09-09T15:41:36.798Z,100392.59
2022-09-09T15:44:04.074Z,100392.72
2022-09-09T15:46:40.129Z,100394.56
2022-09-09T15:49:16.141Z,100394.84
2022-09-09T15:51:45.609Z,100397.03
2022-09-09T15:54:19.020Z,100390.75
2022-09-09T15:56:49.738Z,100393.47
2022-09-09T15:59:17.089Z,100398.03
2022-09-09T16:01:44.963Z,100389.00
2022-09-09T16:04:13.123Z,100394.69
2022-09-09T16:06:40.572Z,100396.56
2022-09-09T16:09:09.153Z,100398.81
2022-09-09T16:11:38.622Z,100392.22
2022-09-09T16:14:07.650Z,100391.97
2022-09-09T16:16:36.230Z,100394.22
2022-09-09T16:19:10.444Z,100394.44
2022-09-09T16:21:41.299Z,100400.69
2022-09-09T16:24:11.173Z,100396.72
2022-09-09T16:26:40.530Z,100396.88
2022-09-09T16:29:07.854Z,100405.78
2022-09-09T16:31:35.530Z,100399.50
2022-09-09T16:34:04.462Z,100405.06
2022-09-09T16:36:35.155Z,100411.03
2022-09-09T16:39:06.245Z,100403.00
2022-09-09T16:41:34.538Z,100413.66
2022-09-09T16:44:05.223Z,100407.53
2022-09-09T16:46:35.941Z,100404.25
2022-09-09T16:49:05.887Z,100412.50
2022-09-09T16:51:36.387Z,100411.06
2022-09-09T16:54:08.614Z,100419.06
2022-09-09T16:56:44.431Z,100416.88
2022-09-09T16:59:19.728Z,100406.09
2022-09-09T17:01:49.688Z,100411.75
2022-09-09T17:04:26.561Z,100417.25
2022-09-09T17:06:55.513Z,100410.19
2022-09-09T17:09:24.279Z,100417.31
2022-09-09T17:11:55.807Z,100425.91
2022-09-09T17:14:24.731Z,100424.97
2022-09-09T17:16:54.982Z,100425.72
2022-09-09T17:19:22.311Z,100420.63
2022-09-09T17:22:14.991Z,100417.91
2022-09-09T17:24:39.970Z,100413.81
2022-09-09T17:27:08.011Z,100419.72
2022-09-09T17:29:36.878Z,100432.59
2022-09-09T17:32:06.335Z,100438.44
2022-09-09T17:34:35.001Z,100435.59
2022-09-09T17:37:02.336Z,100443.41
2022-09-09T17:39:29.901Z,100449.09
2022-09-09T17:41:57.188Z,100451.72
2022-09-09T17:44:24.580Z,100456.66
2022-09-09T17:46:52.030Z,100448.31
2022-09-09T17:49:19.444Z,100460.38
2022-09-09T17:51:47.108Z,100465.78
2022-09-09T17:54:18.035Z,100470.22
2022-09-09T17:56:46.707Z,100481.31
2022-09-09T17:59:15.926Z,100473.56
2022-09-09T18:01:46.379Z,100479.50
2022-09-09T18:04:15.664Z,100483.31
2022-09-09T18:06:46.029Z,100481.34
2022-09-09T18:09:16.993Z,100484.75
2022-09-09T18:11:46.575Z,100482.75
2022-09-09T18:14:32.787Z,100487.94
2022-09-09T18:17:02.022Z,100474.50
2022-09-09T18:19:31.130Z,100478.94
2022-09-09T18:22:01.940Z,100481.59
2022-09-09T18:24:31.052Z,100487.91
2022-09-09T18:26:58.824Z,100488.47
2022-09-09T18:29:26.351Z,100488.00
2022-09-09T18:31:55.224Z,100497.41
2022-09-09T18:34:25.586Z,100495.44
2022-09-09T18:36:55.077Z,100500.78
2022-09-09T18:39:25.786Z,100501.09
2022-09-09T18:41:55.948Z,100514.81
2022-09-09T18:44:26.678Z,100506.53
2022-09-09T18:46:54.448Z,100514.31
2022-09-09T18:49:24.458Z,100512.97
2022-09-09T18:51:52.330Z,100509.47
2022-09-09T18:54:22.935Z,100516.09
2022-09-09T18:56:51.479Z,100518.16
2022-09-09T18:59:22.922Z,100513.69
2022-09-09T19:01:52.243Z,100514.91
2022-09-09T19:04:21.873Z,100522.56
2022-09-09T19:06:50.318Z,100520.59
2022-09-09T19:09:18.883Z,100537.97
2022-09-09T19:11:47.011Z,100526.88
2022-09-09T19:14:16.738Z,100533.41
2022-09-09T19:16:45.471Z,100535.41
2022-09-09T19:19:22.559Z,100526.19
2022-09-09T19:21:51.583Z,100536.09
2022-09-09T19:24:23.124Z,100534.19
2022-09-09T19:26:52.919Z,100545.06
2022-09-09T19:29:23.666Z,100537.78
2022-09-09T19:32:36.532Z,100538.09
2022-09-09T19:34:40.937Z,100524.28
2022-09-09T19:37:08.511Z,100542.38
2022-09-09T19:39:35.918Z,100542.38
2022-09-09T19:42:03.634Z,100544.88
2022-09-09T19:44:31.079Z,100548.31
2022-09-09T19:46:59.613Z,100545.91
2022-09-09T19:49:27.041Z,100541.59
2022-09-09T19:51:56.026Z,100546.38
2022-09-09T19:54:23.509Z,100547.91
2022-09-09T19:56:54.120Z,100552.25
2022-09-09T19:59:21.471Z,100561.38
2022-09-09T20:01:49.300Z,100557.38
2022-09-09T20:04:17.790Z,100557.78
2022-09-09T20:06:45.732Z,100569.59
2022-09-09T20:09:16.496Z,100569.97
2022-09-09T20:11:45.932Z,100565.34
2022-09-09T20:14:16.016Z,100566.91
2022-09-09T20:16:43.861Z,100568.91
2022-09-09T20:19:12.894Z,100570.47
2022-09-09T20:21:47.893Z,100574.03
2022-09-09T20:24:18.778Z,100569.28
2022-09-09T20:26:48.323Z,100570.44
2022-09-09T20:29:18.248Z,100569.16
2022-09-09T20:31:46.297Z,100574.41
2022-09-09T20:34:19.511Z,100575.84
2022-09-09T20:36:47.378Z,100571.06
2022-09-09T20:39:17.308Z,100562.75
2022-09-09T20:41:46.348Z,100564.22
2022-09-09T20:44:19.257Z,100573.41
2022-09-09T20:46:48.785Z,100574.63
2022-09-09T20:49:19.005Z,100572.91
2022-09-09T20:51:48.016Z,100567.78
2022-09-09T20:54:21.100Z,100575.38
2022-09-09T20:56:48.605Z,100578.88
2022-09-09T20:59:23.955Z,100574.63
2022-09-09T21:01:53.285Z,100577.38
2022-09-09T21:04:21.883Z,100562.22
2022-09-09T21:06:51.106Z,100561.72
2022-09-09T21:09:19.539Z,100550.97
2022-09-09T21:11:47.225Z,100556.94
2022-09-09T21:14:15.212Z,100555.03
2022-09-09T21:16:43.007Z,100559.38
2022-09-09T21:19:10.412Z,100564.31
2022-09-09T21:21:37.950Z,100577.47
2022-09-09T21:24:05.664Z,100598.09
2022-09-09T21:26:36.371Z,100609.28
2022-09-09T21:29:03.687Z,100601.56
2022-09-09T21:31:31.588Z,100609.84
2022-09-09T21:33:59.527Z,100598.81
2022-09-09T21:36:28.675Z,100604.75
2022-09-09T21:38:59.167Z,100589.31
2022-09-09T21:41:27.205Z,100607.50
2022-09-09T21:43:55.514Z,100604.31
2022-09-09T21:46:24.016Z,100623.31
2022-09-09T21:48:51.911Z,100629.28
2022-09-09T21:51:19.230Z,100640.31
2022-09-09T21:53:46.588Z,100635.56
2022-09-09T21:56:17.303Z,100615.78
2022-09-09T21:58:46.054Z,100599.59
2022-09-09T22:01:16.397Z,100609.09
2022-09-09T22:03:45.112Z,100594.47
2022-09-09T22:06:15.364Z,100604.75
2022-09-09T22:08:43.741Z,100622.94
2022-09-09T22:11:17.165Z,100631.63
2022-09-09T22:13:48.309Z,100633.59
2022-09-09T22:16:20.093Z,100628.09
2022-09-09T22:18:56.898Z,100613.06
2022-09-09T22:21:26.189Z,100623.31
2022-09-09T22:23:59.281Z,100615.03
2022-09-09T22:26:28.793Z,100613.03
2022-09-09T22:28:57.333Z,100608.31
2022-09-09T22:31:25.943Z,100588.91
2022-09-09T22:33:53.834Z,100594.47
2022-09-09T22:36:21.687Z,100591.72
2022-09-09T22:38:50.439Z,100604.34
2022-09-09T22:41:18.907Z,100596.81
2022-09-09T22:43:46.891Z,100609.88
2022-09-09T22:46:14.715Z,100610.22
2022-09-09T22:48:42.107Z,100609.84
2022-09-09T22:51:12.645Z,100620.53
2022-09-09T22:53:41.545Z,100622.53
2022-09-09T22:56:14.280Z,100622.53
2022-09-09T22:58:41.494Z,100618.19
2022-09-09T23:01:16.522Z,100617.38
2022-09-09T23:03:47.797Z,100622.84
2022-09-09T23:06:22.219Z,100628.31
2022-09-09T23:08:56.149Z,100623.97
2022-09-09T23:11:29.176Z,100615.59
2022-09-09T23:13:58.773Z,100610.41
2022-09-09T23:16:27.367Z,100617.91
2022-09-09T23:18:57.472Z,100619.06
2022-09-09T23:21:28.197Z,100606.13
2022-09-09T23:23:57.540Z,100606.16
2022-09-09T23:26:26.315Z,100608.16
2022-09-09T23:28:55.893Z,100616.88
2022-09-09T23:31:24.904Z,100610.22
2022-09-09T23:33:54.431Z,100603.06
2022-09-09T23:36:24.833Z,100620.44
2022-09-09T23:38:54.517Z,100614.56
2022-09-09T23:41:22.324Z,100616.53
2022-09-09T23:43:52.230Z,100605.84
2022-09-09T23:46:27.721Z,100623.19
2022-09-09T23:48:57.454Z,100608.59
2022-09-09T23:51:28.850Z,100616.16
2022-09-09T23:53:58.592Z,100617.28
2022-09-09T23:56:29.107Z,100630.28
2022-09-09T23:58:56.459Z,100616.91
